Time;durP1;ratioP1;P1;durP2;ratioP2;P2;SDS_P1;SDS_P2;PMS_P1;PMS_P2;Temp;Humidity;BMP_temperature;BMP_pressure;BME280_temperature;BME280_humidity;BME280_pressure;Samples;Min_cycle;Max_cycle;Signal;HPM_P1;HPM_P2
2021/10/17 00:00:12;;;;;;;19.87;13.60;;;;;;;3.65;100.00;96585.03;5029569;28;20510;-73
2021/10/17 00:02:41;;;;;;;20.57;13.57;;;;;;;3.69;100.00;96582.16;5040204;28;20041;-73
2021/10/17 00:05:09;;;;;;;18.43;12.77;;;;;;;3.65;100.00;96578.06;5031755;28;20041;-73
2021/10/17 00:07:40;;;;;;;16.08;10.52;;;;;;;3.68;100.00;96584.84;5025907;28;20026;-74
2021/10/17 00:10:09;;;;;;;18.97;12.37;;;;;;;3.69;100.00;96583.88;5016636;28;20041;-73
2021/10/17 00:12:36;;;;;;;20.23;12.80;;;;;;;3.61;100.00;96591.41;5033225;28;20078;-74
2021/10/17 00:15:04;;;;;;;18.17;11.53;;;;;;;3.57;100.00;96590.78;5026328;28;20029;-73
2021/10/17 00:17:29;;;;;;;17.70;11.57;;;;;;;3.56;100.00;96588.31;5029365;28;20128;-74
2021/10/17 00:19:55;;;;;;;17.27;11.33;;;;;;;3.41;100.00;96588.44;5028537;28;20534;-74
2021/10/17 00:22:21;;;;;;;19.70;11.77;;;;;;;3.41;100.00;96587.59;5013688;28;20021;-74
2021/10/17 00:24:46;;;;;;;17.73;11.87;;;;;;;3.43;100.00;96596.97;5027840;28;20025;-74
2021/10/17 00:27:12;;;;;;;16.57;10.73;;;;;;;3.43;100.00;96591.75;5011483;28;21521;-73
2021/10/17 00:29:38;;;;;;;20.13;11.90;;;;;;;3.43;100.00;96589.16;5027554;28;20040;-74
2021/10/17 00:32:04;;;;;;;17.60;11.87;;;;;;;3.46;100.00;96588.94;5008656;28;20033;-74
2021/10/17 00:34:29;;;;;;;19.83;12.23;;;;;;;3.46;100.00;96588.94;5036690;28;20050;-73
2021/10/17 00:36:55;;;;;;;20.43;13.87;;;;;;;3.45;100.00;96583.84;5030435;28;20025;-73
2021/10/17 00:39:21;;;;;;;20.40;13.63;;;;;;;3.43;100.00;96572.72;5013700;28;20035;-73
2021/10/17 00:41:51;;;;;;;21.70;13.87;;;;;;;3.46;100.00;96580.31;5014298;28;20035;-74
2021/10/17 00:44:22;;;;;;;23.60;13.73;;;;;;;3.40;100.00;96563.38;5011059;28;20482;-73
2021/10/17 00:46:49;;;;;;;25.20;14.30;;;;;;;3.43;100.00;96578.75;5026794;28;20080;-73
2021/10/17 00:49:15;;;;;;;22.53;14.60;;;;;;;3.39;100.00;96571.28;5010062;28;20029;-73
2021/10/17 00:51:43;;;;;;;20.87;13.70;;;;;;;3.43;100.00;96570.13;5028832;28;20037;-73
2021/10/17 00:54:11;;;;;;;24.07;14.57;;;;;;;3.42;100.00;96571.06;5010855;28;20029;-73
2021/10/17 00:56:37;;;;;;;19.37;13.10;;;;;;;3.40;100.00;96565.97;5010135;28;20033;-72
2021/10/17 00:59:06;;;;;;;19.40;13.03;;;;;;;3.41;100.00;96561.59;5024455;28;20033;-72
2021/10/17 01:01:32;;;;;;;17.10;12.13;;;;;;;3.47;100.00;96568.97;5023820;28;20049;-73
2021/10/17 01:03:58;;;;;;;20.50;13.20;;;;;;;3.45;100.00;96569.06;5034027;28;20112;-74
2021/10/17 01:06:23;;;;;;;19.33;12.87;;;;;;;3.37;100.00;96560.97;5010696;28;20083;-73
2021/10/17 01:08:49;;;;;;;22.57;13.60;;;;;;;3.33;100.00;96563.91;5028313;28;20096;-74
2021/10/17 01:11:16;;;;;;;19.40;12.70;;;;;;;3.33;100.00;96561.31;5034132;28;20491;-74
2021/10/17 01:13:42;;;;;;;18.83;12.03;;;;;;;3.24;100.00;96555.81;5055943;28;20025;-74
2021/10/17 01:16:08;;;;;;;17.33;10.80;;;;;;;3.20;100.00;96549.16;5019980;28;20029;-74
2021/10/17 01:18:52;;;;;;;18.27;12.30;;;;;;;3.15;100.00;96559.03;5054153;28;20029;-73
2021/10/17 01:21:23;;;;;;;19.47;12.13;;;;;;;3.17;100.00;96551.13;5053480;28;20030;-73
2021/10/17 01:23:50;;;;;;;18.17;11.60;;;;;;;3.16;100.00;96546.88;5014202;28;20048;-73
2021/10/17 01:26:15;;;;;;;17.00;11.00;;;;;;;3.05;100.00;96545.88;5015460;28;20022;-73
2021/10/17 01:28:41;;;;;;;17.50;11.20;;;;;;;3.09;100.00;96548.25;5031893;28;20025;-73
2021/10/17 01:31:07;;;;;;;17.93;11.23;;;;;;;3.09;100.00;96551.69;5016694;28;20112;-73
2021/10/17 01:33:32;;;;;;;19.30;10.83;;;;;;;3.04;100.00;96541.59;5030442;28;20075;-73
2021/10/17 01:35:58;;;;;;;18.23;11.53;;;;;;;2.98;100.00;96544.59;5039181;28;20048;-73
2021/10/17 01:38:24;;;;;;;18.40;12.07;;;;;;;3.04;100.00;96548.53;5022083;28;20080;-74
2021/10/17 01:40:50;;;;;;;18.73;11.97;;;;;;;3.01;100.00;96541.78;5036035;28;20045;-74
2021/10/17 01:43:16;;;;;;;21.50;12.43;;;;;;;2.97;100.00;96545.53;5006886;28;20426;-74
2021/10/17 01:46:07;;;;;;;18.03;12.40;;;;;;;3.00;100.00;96545.34;5027394;28;20037;-73
2021/10/17 01:48:37;;;;;;;16.97;11.07;;;;;;;3.02;100.00;96545.25;5030144;28;20037;-73
2021/10/17 01:51:03;;;;;;;19.20;12.33;;;;;;;3.03;100.00;96550.31;5011432;28;20037;-73
2021/10/17 01:53:30;;;;;;;18.60;12.27;;;;;;;3.08;100.00;96550.00;5043917;28;20068;-73
2021/10/17 01:55:58;;;;;;;18.83;11.93;;;;;;;2.99;100.00;96548.03;5031354;28;20585;-73
2021/10/17 01:58:27;;;;;;;21.10;12.33;;;;;;;2.94;100.00;96547.50;5037745;28;20037;-74
2021/10/17 02:00:53;;;;;;;19.03;11.90;;;;;;;2.82;100.00;96546.59;5014892;28;20032;-73
2021/10/17 02:03:19;;;;;;;20.67;12.77;;;;;;;2.82;100.00;96549.19;5029923;28;20038;-73
2021/10/17 02:05:48;;;;;;;20.97;13.03;;;;;;;2.72;100.00;96545.56;5029659;28;20554;-73
2021/10/17 02:08:15;;;;;;;21.03;12.83;;;;;;;2.80;100.00;96543.25;5016010;28;20068;-74
2021/10/17 02:10:41;;;;;;;20.37;13.37;;;;;;;2.77;100.00;96541.69;5030364;28;20056;-73
2021/10/17 02:13:09;;;;;;;20.43;13.33;;;;;;;2.68;100.00;96531.09;5017420;28;20041;-73
2021/10/17 02:15:35;;;;;;;19.90;12.60;;;;;;;2.69;100.00;96544.00;5012713;28;20025;-74
2021/10/17 02:18:01;;;;;;;22.43;13.87;;;;;;;2.73;100.00;96536.81;5031717;28;20022;-74
2021/10/17 02:20:36;;;;;;;21.87;13.77;;;;;;;2.70;100.00;96526.63;5035286;28;20027;-74
2021/10/17 02:23:04;;;;;;;21.53;11.63;;;;;;;2.68;100.00;96531.09;5009888;28;20092;-73
2021/10/17 02:25:31;;;;;;;20.27;12.60;;;;;;;2.71;100.00;96530.88;5017647;28;20382;-73
2021/10/17 02:27:57;;;;;;;22.00;14.30;;;;;;;2.72;100.00;96530.81;5013938;28;20033;-74
2021/10/17 02:30:24;;;;;;;21.50;12.97;;;;;;;2.77;100.00;96531.31;5036517;28;20044;-73
2021/10/17 02:33:07;;;;;;;21.77;12.50;;;;;;;2.70;100.00;96531.84;5059214;28;20178;-73
2021/10/17 02:35:33;;;;;;;18.33;12.90;;;;;;;2.64;100.00;96532.25;5034990;28;20124;-74
2021/10/17 02:37:59;;;;;;;21.93;12.90;;;;;;;2.66;100.00;96532.97;5012778;28;20614;-74
2021/10/17 02:40:31;;;;;;;21.40;12.83;;;;;;;2.59;100.00;96533.38;5033753;28;20033;-74
2021/10/17 02:42:57;;;;;;;20.50;13.40;;;;;;;2.63;100.00;96525.41;5020223;28;20088;-73
2021/10/17 02:45:23;;;;;;;20.93;12.83;;;;;;;2.66;100.00;96522.59;5027034;28;20030;-74
2021/10/17 02:47:49;;;;;;;24.43;14.73;;;;;;;2.64;100.00;96519.25;5025900;28;20040;-73
2021/10/17 02:50:16;;;;;;;24.70;14.20;;;;;;;2.60;100.00;96529.03;5015662;28;20025;-73
2021/10/17 02:52:43;;;;;;;29.90;16.30;;;;;;;2.63;100.00;96525.41;5034711;28;20121;-73
2021/10/17 02:55:10;;;;;;;24.37;14.63;;;;;;;2.62;100.00;96531.53;5014258;28;20017;-74
2021/10/17 02:57:36;;;;;;;24.40;15.07;;;;;;;2.69;100.00;96522.38;5029409;28;20025;-74
2021/10/17 03:00:05;;;;;;;27.23;15.60;;;;;;;2.76;100.00;96532.25;5010781;28;20068;-74
2021/10/17 03:02:32;;;;;;;27.07;15.60;;;;;;;2.77;100.00;96527.88;5042168;28;20033;-74
2021/10/17 03:04:57;;;;;;;24.40;15.13;;;;;;;2.71;100.00;96526.53;5028017;28;20390;-73
2021/10/17 03:07:23;;;;;;;26.70;15.07;;;;;;;2.74;100.00;96522.91;5033613;28;20026;-73
2021/10/17 03:10:01;;;;;;;24.10;14.37;;;;;;;2.70;100.00;96518.84;5020489;28;20021;-73
2021/10/17 03:12:27;;;;;;;23.73;13.80;;;;;;;2.69;100.00;96519.78;5029564;28;20029;-74
2021/10/17 03:14:56;;;;;;;27.50;15.37;;;;;;;2.59;100.00;96512.63;5016845;28;20462;-73
2021/10/17 03:17:22;;;;;;;25.37;15.50;;;;;;;2.68;100.00;96512.91;5033196;28;20030;-73
2021/10/17 03:19:49;;;;;;;25.03;15.10;;;;;;;2.62;100.00;96521.97;5014078;28;20087;-73
2021/10/17 03:22:16;;;;;;;24.57;14.30;;;;;;;2.64;100.00;96514.06;5032927;28;20025;-74
2021/10/17 03:24:41;;;;;;;22.97;14.10;;;;;;;2.53;100.00;96518.22;5022110;28;20664;-73
2021/10/17 03:27:07;;;;;;;24.53;13.67;;;;;;;2.54;100.00;96514.69;5030321;28;20044;-73
2021/10/17 03:29:33;;;;;;;22.37;13.67;;;;;;;2.55;100.00;96516.38;5068826;28;20474;-73
2021/10/17 03:32:02;;;;;;;23.20;14.27;;;;;;;2.55;100.00;96512.94;5033590;28;20024;-73
2021/10/17 03:34:29;;;;;;;25.00;14.30;;;;;;;2.50;100.00;96518.41;5032677;28;20021;-73
2021/10/17 03:36:55;;;;;;;23.83;14.00;;;;;;;2.46;100.00;96519.56;5030372;28;20056;-74
2021/10/17 03:39:21;;;;;;;24.03;14.47;;;;;;;2.42;100.00;96520.72;5032872;28;20037;-73
2021/10/17 03:41:47;;;;;;;23.03;14.50;;;;;;;2.41;100.00;96524.22;5027181;28;20112;-73
2021/10/17 03:44:13;;;;;;;21.90;14.40;;;;;;;2.40;100.00;96517.38;5034213;28;20620;-73
2021/10/17 03:46:38;;;;;;;26.60;14.87;;;;;;;2.41;100.00;96524.22;5065139;28;20573;-74
2021/10/17 03:49:04;;;;;;;23.17;14.17;;;;;;;2.42;100.00;96518.13;5036023;28;20360;-74
2021/10/17 03:51:30;;;;;;;23.07;12.80;;;;;;;2.40;100.00;96514.78;5026387;28;20376;-73
2021/10/17 03:54:00;;;;;;;25.03;14.03;;;;;;;2.34;100.00;96518.59;5014095;28;20033;-73
2021/10/17 03:56:26;;;;;;;23.10;14.40;;;;;;;2.31;100.00;96518.84;5016752;28;20029;-73
2021/10/17 03:58:53;;;;;;;23.13;13.37;;;;;;;2.34;100.00;96520.38;5017333;28;20452;-73
2021/10/17 04:01:19;;;;;;;25.67;14.53;;;;;;;2.28;100.00;96519.03;5038080;28;20044;-73
2021/10/17 04:03:45;;;;;;;23.23;14.70;;;;;;;2.29;100.00;96518.09;5013205;28;20117;-73
2021/10/17 04:06:11;;;;;;;23.40;14.23;;;;;;;2.28;100.00;96513.84;5030258;28;20127;-74
2021/10/17 04:08:39;;;;;;;21.43;13.30;;;;;;;2.25;100.00;96513.22;5008909;28;20072;-73
2021/10/17 04:11:06;;;;;;;25.67;13.60;;;;;;;2.28;100.00;96508.66;5032618;28;20053;-73
2021/10/17 04:13:32;;;;;;;24.50;14.13;;;;;;;2.22;100.00;96500.44;5029407;28;20159;-73
2021/10/17 04:16:00;;;;;;;24.70;14.50;;;;;;;2.18;100.00;96501.56;5029977;28;20146;-73
2021/10/17 04:18:25;;;;;;;23.70;13.73;;;;;;;2.13;100.00;96510.47;5029925;28;20025;-73
2021/10/17 04:20:51;;;;;;;25.77;15.30;;;;;;;2.17;100.00;96511.09;5023148;28;20471;-74
2021/10/17 04:23:19;;;;;;;24.10;15.27;;;;;;;2.18;100.00;96507.59;5013500;28;20021;-73
2021/10/17 04:25:44;;;;;;;24.37;15.17;;;;;;;2.16;100.00;96503.44;5021320;28;20032;-73
2021/10/17 04:28:14;;;;;;;23.20;14.00;;;;;;;2.18;100.00;96502.41;5017260;28;20535;-73
2021/10/17 04:30:41;;;;;;;24.73;13.97;;;;;;;2.15;100.00;96507.78;5021169;28;20495;-74
2021/10/17 04:33:07;;;;;;;25.17;14.73;;;;;;;2.21;100.00;96512.56;5039431;28;20444;-73
2021/10/17 04:35:39;;;;;;;26.83;14.77;;;;;;;2.25;100.00;96508.84;5036435;28;20044;-73
2021/10/17 04:38:05;;;;;;;26.63;14.77;;;;;;;2.29;100.00;96509.47;5035543;28;20467;-73
2021/10/17 04:40:32;;;;;;;29.67;14.53;;;;;;;2.30;100.00;96504.16;5028722;28;20448;-73
2021/10/17 04:42:58;;;;;;;30.70;16.07;;;;;;;2.31;100.00;96512.78;5030611;28;20037;-73
2021/10/17 04:45:23;;;;;;;23.93;14.97;;;;;;;2.34;100.00;96512.59;5037810;28;20391;-73
2021/10/17 04:47:49;;;;;;;26.00;14.30;;;;;;;2.31;100.00;96508.44;5034617;28;20037;-74
2021/10/17 04:50:14;;;;;;;31.80;15.17;;;;;;;2.27;100.00;96506.97;5035587;28;20023;-73
2021/10/17 04:52:40;;;;;;;24.37;15.07;;;;;;;2.31;100.00;96503.25;5020669;28;20073;-73
2021/10/17 04:55:08;;;;;;;25.77;15.27;;;;;;;2.32;100.00;96498.91;5072579;28;20025;-73
2021/10/17 04:57:36;;;;;;;26.53;15.03;;;;;;;2.30;100.00;96506.78;5031580;28;20041;-73
2021/10/17 05:00:04;;;;;;;25.00;14.70;;;;;;;2.34;100.00;96502.19;5065238;28;20387;-72
2021/10/17 05:02:42;;;;;;;26.57;15.70;;;;;;;2.35;100.00;96502.13;5041881;28;20478;-73
2021/10/17 05:05:08;;;;;;;27.70;15.57;;;;;;;2.39;100.00;96501.91;5038654;28;20034;-73
2021/10/17 05:07:34;;;;;;;27.33;16.20;;;;;;;2.39;100.00;96499.31;5039522;28;20478;-73
2021/10/17 05:10:00;;;;;;;27.30;14.47;;;;;;;2.42;100.00;96504.31;5047026;28;20516;-73
2021/10/17 05:12:26;;;;;;;28.60;16.47;;;;;;;2.40;100.00;96501.81;5041759;28;20017;-73
2021/10/17 05:14:53;;;;;;;29.07;16.87;;;;;;;2.38;100.00;96495.88;5067427;28;20060;-73
2021/10/17 05:17:20;;;;;;;27.77;17.03;;;;;;;2.33;100.00;96500.56;5026633;28;20108;-73
2021/10/17 05:19:46;;;;;;;29.93;17.97;;;;;;;2.36;100.00;96500.34;5023885;28;20656;-73
2021/10/17 05:22:11;;;;;;;29.73;17.67;;;;;;;2.32;100.00;96494.53;5036381;28;20023;-73
2021/10/17 05:24:37;;;;;;;28.57;17.50;;;;;;;2.29;100.00;96499.09;5014489;28;20095;-73
2021/10/17 05:27:03;;;;;;;25.30;15.77;;;;;;;2.31;100.00;96492.03;5044191;28;20025;-73
2021/10/17 05:29:29;;;;;;;27.07;17.03;;;;;;;2.30;100.00;96500.75;5034876;28;20033;-73
2021/10/17 05:31:56;;;;;;;26.23;17.73;;;;;;;2.26;100.00;96501.91;5073074;28;20013;-72
2021/10/17 05:34:22;;;;;;;30.53;18.77;;;;;;;2.29;100.00;96499.09;5034841;28;20408;-73
2021/10/17 05:36:47;;;;;;;29.93;17.93;;;;;;;2.33;100.00;96497.94;5042066;28;20017;-74
2021/10/17 05:39:13;;;;;;;31.20;17.50;;;;;;;2.38;100.00;96502.81;5018134;28;20033;-73
2021/10/17 05:41:39;;;;;;;29.03;16.83;;;;;;;2.37;100.00;96496.81;5036077;28;20180;-73
2021/10/17 05:44:05;;;;;;;28.03;18.23;;;;;;;2.31;100.00;96505.00;5042419;28;20439;-73
2021/10/17 05:46:31;;;;;;;29.37;16.27;;;;;;;2.27;100.00;96498.34;5047429;28;20091;-73
2021/10/17 05:48:57;;;;;;;30.07;18.20;;;;;;;2.24;100.00;96499.38;5040436;28;20037;-73
2021/10/17 05:51:23;;;;;;;29.30;18.57;;;;;;;2.25;100.00;96502.84;5034993;28;20106;-73
2021/10/17 05:53:49;;;;;;;32.13;20.00;;;;;;;2.27;100.00;96503.53;5036687;28;20061;-72
2021/10/17 05:56:15;;;;;;;30.93;18.50;;;;;;;2.32;100.00;96509.28;5036112;28;20009;-73
2021/10/17 05:58:41;;;;;;;29.93;18.57;;;;;;;2.30;100.00;96506.78;5066609;28;20736;-73
2021/10/17 06:01:06;;;;;;;30.57;17.93;;;;;;;2.28;100.00;96519.03;5037009;28;20486;-73
2021/10/17 06:03:38;;;;;;;29.70;18.07;;;;;;;2.29;100.00;96512.91;5017245;28;20036;-73
2021/10/17 06:06:23;;;;;;;22.27;14.57;;;;;;;2.39;100.00;96510.53;5031355;28;20045;-73
2021/10/17 06:08:57;;;;;;;27.20;16.13;;;;;;;2.40;100.00;96521.75;5030101;28;20387;-73
2021/10/17 06:11:23;;;;;;;24.30;15.20;;;;;;;2.42;100.00;96531.09;5029456;28;20041;-73
2021/10/17 06:13:48;;;;;;;28.03;17.23;;;;;;;2.32;100.00;96527.44;5039695;28;20029;-73
2021/10/17 06:16:14;;;;;;;27.07;16.33;;;;;;;2.41;100.00;96529.41;5021898;28;20387;-73
2021/10/17 06:18:40;;;;;;;26.73;16.90;;;;;;;2.58;100.00;96528.28;5036515;28;20060;-73
2021/10/17 06:21:07;;;;;;;27.80;16.53;;;;;;;2.54;100.00;96530.25;5043929;28;20068;-74
2021/10/17 06:23:34;;;;;;;31.63;17.33;;;;;;;2.59;100.00;96533.38;5025064;28;20030;-74
2021/10/17 06:26:00;;;;;;;27.63;17.40;;;;;;;2.62;100.00;96532.34;5011776;28;20045;-74
2021/10/17 06:28:26;;;;;;;30.77;18.43;;;;;;;2.73;100.00;96532.47;5036344;28;20072;-73
2021/10/17 06:30:53;;;;;;;30.73;19.43;;;;;;;2.84;100.00;96536.91;5040231;28;20029;-73
2021/10/17 06:33:19;;;;;;;34.60;19.73;;;;;;;3.13;100.00;96536.69;5041371;28;20040;-73
2021/10/17 06:35:49;;;;;;;31.50;19.53;;;;;;;3.26;100.00;96540.13;5032376;28;20120;-73
2021/10/17 06:38:15;;;;;;;28.60;19.53;;;;;;;3.38;100.00;96541.84;5022945;28;20025;-73
2021/10/17 06:40:41;;;;;;;26.50;17.53;;;;;;;3.59;100.00;96544.72;5049330;28;20032;-73
2021/10/17 06:43:09;;;;;;;30.67;17.73;;;;;;;3.93;100.00;96539.72;5025081;28;20089;-73
2021/10/17 06:45:51;;;;;;;24.03;15.83;;;;;;;4.45;100.00;96539.31;5017519;28;20030;-73
2021/10/17 06:48:18;;;;;;;23.13;14.50;;;;;;;4.78;100.00;96535.13;5016298;28;20040;-73
2021/10/17 06:50:44;;;;;;;21.87;13.30;;;;;;;5.16;100.00;96540.03;5043220;28;20033;-73
2021/10/17 06:53:10;;;;;;;20.43;13.90;;;;;;;4.95;100.00;96537.28;5035065;28;20067;-73
2021/10/17 06:55:35;;;;;;;22.10;14.60;;;;;;;5.21;100.00;96539.66;5040552;28;20021;-73
2021/10/17 06:58:01;;;;;;;19.60;13.03;;;;;;;5.74;100.00;96539.84;5034607;28;20029;-73
2021/10/17 07:00:29;;;;;;;19.30;12.40;;;;;;;5.92;100.00;96540.16;5041098;28;20025;-73
2021/10/17 07:02:55;;;;;;;18.83;12.67;;;;;;;5.87;100.00;96540.53;5029378;28;20474;-73
2021/10/17 07:05:22;;;;;;;21.67;12.63;;;;;;;6.19;100.00;96544.16;5042852;28;20111;-73
2021/10/17 07:07:48;;;;;;;17.63;12.37;;;;;;;6.19;100.00;96544.16;5038556;28;20021;-74
2021/10/17 07:10:14;;;;;;;16.70;12.10;;;;;;;6.92;100.00;96547.69;5027929;28;20609;-73
2021/10/17 07:13:15;;;;;;;16.97;9.87;;;;;;;6.51;100.00;96544.13;5006739;28;20046;-73
2021/10/17 07:15:53;;;;;;;15.10;10.73;;;;;;;6.99;100.00;96547.03;5038841;28;20076;-73
2021/10/17 07:18:20;;;;;;;19.20;11.73;;;;;;;7.03;100.00;96545.81;5013982;28;20647;-74
2021/10/17 07:20:46;;;;;;;19.50;12.40;;;;;;;7.06;100.00;96549.97;5070754;28;20044;-74
2021/10/17 07:23:11;;;;;;;16.27;10.60;;;;;;;7.15;100.00;96549.19;5034783;28;20040;-74
2021/10/17 07:25:38;;;;;;;16.90;11.03;;;;;;;7.18;99.29;96542.88;5035518;28;20033;-74
2021/10/17 07:28:04;;;;;;;16.93;11.40;;;;;;;7.16;99.34;96550.03;5023927;28;20041;-74
2021/10/17 07:30:38;;;;;;;18.37;10.77;;;;;;;7.53;99.03;96548.53;5029378;28;20030;-73
2021/10/17 07:33:04;;;;;;;15.53;11.73;;;;;;;7.49;96.49;96556.78;5040300;28;20657;-74
2021/10/17 07:35:30;;;;;;;17.13;11.77;;;;;;;7.91;95.13;96549.56;5033798;28;20028;-74
2021/10/17 07:37:57;;;;;;;20.77;13.77;;;;;;;7.95;96.08;96548.38;5036697;28;20029;-74
2021/10/17 07:40:24;;;;;;;17.60;12.53;;;;;;;8.57;93.05;96551.59;5028164;28;20492;-74
2021/10/17 07:42:51;;;;;;;18.83;12.10;;;;;;;9.09;88.85;96543.38;5034942;28;20029;-73
2021/10/17 07:45:24;;;;;;;17.70;11.50;;;;;;;8.80;90.53;96553.94;5027159;28;20021;-73
2021/10/17 07:47:56;;;;;;;13.83;9.07;;;;;;;8.84;90.89;96550.88;5038217;28;20551;-75
2021/10/17 07:50:22;;;;;;;15.37;11.97;;;;;;;9.51;91.09;96549.03;5039331;28;20033;-73
2021/10/17 07:52:48;;;;;;;16.00;10.80;;;;;;;10.70;82.63;96551.63;5035780;28;20028;-75
2021/10/17 07:55:28;;;;;;;16.57;11.57;;;;;;;10.90;82.48;96550.47;5026920;28;20029;-73
2021/10/17 07:57:58;;;;;;;16.50;11.47;;;;;;;9.83;85.67;96550.41;5072491;28;20020;-75
2021/10/17 08:00:31;;;;;;;18.50;11.98;;;;;;;9.73;85.88;96558.34;5023624;28;20148;-73
2021/10/17 08:03:35;;;;;;;16.70;11.80;;;;;;;9.62;87.93;96554.13;5019759;28;20069;-73
2021/10/17 08:06:23;;;;;;;17.80;13.17;;;;;;;9.99;85.73;96547.94;5025714;28;20060;-73
2021/10/17 08:08:50;;;;;;;20.27;13.13;;;;;;;11.97;79.51;96555.34;5035699;28;20037;-75
2021/10/17 08:11:17;;;;;;;17.60;12.23;;;;;;;11.55;78.74;96556.09;5026390;28;20052;-74
2021/10/17 08:13:44;;;;;;;16.87;12.00;;;;;;;11.20;79.23;96556.22;5036270;28;20129;-74
2021/10/17 08:16:12;;;;;;;15.83;11.93;;;;;;;10.11;85.61;96561.72;5025005;28;20823;-73
2021/10/17 08:18:45;;;;;;;17.77;12.50;;;;;;;12.06;79.57;96555.34;5012276;28;20402;-74
2021/10/17 08:21:10;;;;;;;16.50;12.27;;;;;;;10.84;82.24;96559.78;5011551;28;20040;-75
2021/10/17 08:23:44;;;;;;;18.83;13.25;;;;;;;10.99;83.10;96567.13;5035529;28;20364;-73
2021/10/17 08:26:09;;;;;;;18.70;13.57;;;;;;;11.18;80.87;96566.09;5016437;28;20049;-75
2021/10/17 08:28:35;;;;;;;15.57;12.33;;;;;;;11.84;81.29;96562.88;5011082;28;20028;-74
2021/10/17 08:31:09;;;;;;;19.35;13.35;;;;;;;11.89;80.22;96565.84;5022664;28;20151;-74
2021/10/17 08:33:34;;;;;;;16.23;12.07;;;;;;;12.87;76.18;96566.00;5041267;28;20045;-75
2021/10/17 08:36:00;;;;;;;17.23;12.00;;;;;;;13.50;72.35;96556.53;5012655;28;20026;-75
2021/10/17 08:39:21;;;;;;;16.30;12.53;;;;;;;12.68;76.14;96563.72;5040378;28;20274;-75
2021/10/17 08:42:06;;;;;;;18.33;13.47;;;;;;;11.78;80.44;96564.28;4998569;28;20059;-75
2021/10/17 08:44:32;;;;;;;16.20;12.40;;;;;;;12.87;77.16;96550.16;5037941;28;20116;-75
2021/10/17 08:47:17;;;;;;;16.43;11.97;;;;;;;12.90;77.63;96556.94;5037190;28;20502;-76
2021/10/17 08:49:45;;;;;;;16.97;12.47;;;;;;;13.41;73.65;96553.13;5039034;28;20757;-75
2021/10/17 08:52:12;;;;;;;17.10;13.23;;;;;;;13.35;74.58;96553.78;5038206;28;20413;-75
2021/10/17 08:54:44;;;;;;;19.23;12.43;;;;;;;13.49;73.25;96560.19;5040493;28;20037;-75
2021/10/17 08:57:11;;;;;;;17.20;12.03;;;;;;;13.95;73.81;96560.34;5062808;28;20092;-75
2021/10/17 08:59:37;;;;;;;20.10;12.77;;;;;;;14.90;70.28;96551.34;5071290;28;20032;-74
2021/10/17 09:02:15;;;;;;;16.40;12.13;;;;;;;15.38;67.10;96551.88;5049246;28;20041;-75
2021/10/17 09:04:42;;;;;;;17.45;12.45;;;;;;;15.82;65.62;96551.09;5036558;28;20036;-75
2021/10/17 09:07:22;;;;;;;17.75;12.98;;;;;;;16.29;63.63;96549.81;5034786;28;20033;-75
2021/10/17 09:10:23;;;;;;;17.70;12.45;;;;;;;16.38;64.15;96559.31;5016007;28;20029;-75
2021/10/17 09:12:51;;;;;;;18.55;12.70;;;;;;;16.59;61.74;96554.03;5037454;28;20593;-75
2021/10/17 09:15:28;;;;;;;16.02;12.20;;;;;;;16.82;62.27;96551.22;5038009;28;20033;-74
2021/10/17 09:18:21;;;;;;;18.48;12.73;;;;;;;17.39;60.03;96541.44;5034040;28;20417;-75
2021/10/17 09:21:00;;;;;;;15.55;12.55;;;;;;;16.32;61.67;96552.94;5023179;28;20123;-76
2021/10/17 09:23:25;;;;;;;18.13;12.75;;;;;;;17.34;59.97;96544.69;5037919;28;20750;-76
2021/10/17 09:25:53;;;;;;;16.25;12.55;;;;;;;17.52;60.95;96530.91;5041696;28;20108;-75
2021/10/17 09:28:21;;;;;;;16.08;13.23;;;;;;;16.92;61.29;96540.28;5031628;28;20064;-76
2021/10/17 09:31:07;;;;;;;15.70;12.95;;;;;;;16.99;60.21;96545.66;5041300;28;20025;-76
2021/10/17 09:33:34;;;;;;;17.08;12.77;;;;;;;17.66;60.09;96537.13;5024183;28;20033;-76
2021/10/17 09:36:14;;;;;;;17.00;12.43;;;;;;;18.18;57.63;96541.09;5039737;28;20482;-76
2021/10/17 09:39:18;;;;;;;14.73;12.48;;;;;;;18.12;58.19;96534.69;5025945;28;20045;-76
2021/10/17 09:42:21;;;;;;;16.45;12.10;;;;;;;18.82;56.56;96523.84;5015612;28;20042;-76
2021/10/17 09:44:53;;;;;;;15.43;11.88;;;;;;;19.06;54.72;96533.88;5017517;28;20026;-76
2021/10/17 09:47:19;;;;;;;17.17;12.82;;;;;;;19.18;55.24;96525.25;5042277;28;20041;-76
2021/10/17 09:49:51;;;;;;;14.70;11.98;;;;;;;19.30;53.94;96523.63;5026783;28;20017;-76
2021/10/17 09:52:20;;;;;;;12.10;9.90;;;;;;;17.66;52.97;96527.28;5028974;28;20040;-76
2021/10/17 09:54:48;;;;;;;12.68;10.65;;;;;;;18.97;52.83;96519.13;5040941;28;20547;-75
2021/10/17 09:57:14;;;;;;;16.33;10.45;;;;;;;18.24;54.62;96519.00;5021641;28;20025;-75
2021/10/17 09:59:40;;;;;;;14.75;12.75;;;;;;;17.47;55.55;96522.69;5041617;28;20036;-76
2021/10/17 10:02:11;;;;;;;15.43;12.05;;;;;;;15.95;59.07;96528.22;5037409;28;20124;-76
2021/10/17 10:04:39;;;;;;;16.02;12.85;;;;;;;17.02;56.67;96514.19;5027236;28;20371;-76
2021/10/17 10:07:07;;;;;;;16.52;12.57;;;;;;;17.68;56.38;96519.94;5033769;28;20085;-76
2021/10/17 10:09:34;;;;;;;13.70;11.00;;;;;;;18.19;54.48;96516.09;5013265;28;20172;-76
2021/10/17 10:12:03;;;;;;;14.85;11.45;;;;;;;18.38;53.72;96514.53;5024256;28;20021;-76
2021/10/17 10:14:31;;;;;;;15.55;12.23;;;;;;;17.87;55.38;96517.59;5038297;28;20032;-76
2021/10/17 10:16:59;;;;;;;15.95;11.10;;;;;;;17.56;56.31;96521.50;5047181;28;20017;-76
2021/10/17 10:19:26;;;;;;;15.65;11.55;;;;;;;16.86;57.42;96520.59;5036308;28;20037;-76
2021/10/17 10:21:52;;;;;;;13.75;11.02;;;;;;;17.79;53.18;96515.13;5040084;28;20032;-77
2021/10/17 10:24:19;;;;;;;16.27;11.43;;;;;;;18.82;52.88;96507.84;5036830;28;20299;-76
2021/10/17 10:26:52;;;;;;;14.18;11.70;;;;;;;18.30;53.24;96512.03;5037085;28;20027;-77
2021/10/17 10:29:30;;;;;;;16.08;11.23;;;;;;;19.09;50.97;96503.34;5038686;28;20110;-77
2021/10/17 10:31:59;;;;;;;12.35;8.77;;;;;;;17.02;52.58;96508.88;5042175;28;21268;-77
2021/10/17 10:34:25;;;;;;;9.43;7.30;;;;;;;18.39;47.56;96505.50;5042435;28;20033;-76
2021/10/17 10:36:55;;;;;;;10.50;7.43;;;;;;;19.46;45.52;96499.19;5037840;28;20102;-76
2021/10/17 10:39:22;;;;;;;12.52;9.27;;;;;;;19.04;48.92;96495.94;5029069;28;20163;-76
2021/10/17 10:41:57;;;;;;;12.98;10.18;;;;;;;18.73;50.65;96488.56;5012515;28;20114;-77
2021/10/17 10:44:31;;;;;;;11.15;8.43;;;;;;;19.05;49.25;96488.78;5037173;28;20041;-76
2021/10/17 10:46:59;;;;;;;8.52;6.28;;;;;;;19.20;44.96;96488.56;5041254;28;20044;-75
2021/10/17 10:49:42;;;;;;;9.30;6.72;;;;;;;20.12;42.88;96487.50;5031823;28;20032;-76
2021/10/17 10:52:34;;;;;;;9.40;7.72;;;;;;;20.42;44.91;96489.56;5031997;28;20077;-76
2021/10/17 10:55:06;;;;;;;10.65;7.20;;;;;;;19.95;44.20;96489.84;5025789;28;20041;-76
2021/10/17 10:57:45;;;;;;;8.57;6.82;;;;;;;20.23;43.36;96486.00;5037771;28;20470;-75
2021/10/17 11:00:17;;;;;;;9.63;7.00;;;;;;;20.20;44.27;96486.41;5028896;28;20090;-76
2021/10/17 11:03:14;;;;;;;9.32;6.68;;;;;;;19.43;45.47;96491.59;5040073;28;20057;-75
2021/10/17 11:05:40;;;;;;;13.77;10.73;;;;;;;19.87;43.60;96492.72;5039701;28;20045;-77
2021/10/17 11:08:14;;;;;;;8.20;5.05;;;;;;;20.02;41.90;96489.81;5033000;28;20544;-76
2021/10/17 11:10:42;;;;;;;8.77;5.80;;;;;;;20.55;42.03;96488.69;5033823;28;20041;-76
2021/10/17 11:13:10;;;;;;;8.95;5.95;;;;;;;19.64;43.84;96487.88;5028403;28;20031;-76
2021/10/17 11:15:39;;;;;;;9.77;6.15;;;;;;;20.31;42.10;96488.41;5045450;28;20033;-76
2021/10/17 11:18:09;;;;;;;8.65;5.35;;;;;;;19.71;42.91;96482.50;5031811;28;20033;-77
2021/10/17 11:20:36;;;;;;;9.73;5.53;;;;;;;20.15;42.53;96489.72;5028707;28;20044;-76
2021/10/17 11:23:04;;;;;;;7.30;5.10;;;;;;;20.56;42.03;96493.03;5024540;28;20051;-77
2021/10/17 11:25:31;;;;;;;8.07;5.50;;;;;;;20.12;42.09;96492.84;5020048;28;20033;-75
2021/10/17 11:27:58;;;;;;;8.63;5.75;;;;;;;18.90;44.78;96483.66;5037830;28;20017;-74